Latest Coastal Weather Observations for Cape Sorell

IDT60701

Issued at 3:42 pm EDT Thursday 23 January 2020 (issued every 10 minutes, with the page automatically refreshed every 10 minutes)

About coastal observations | Map of coastal stations | Coastal observations for TAS | Marine services | Other Formats
Station Details ID: 097000 Name: CAPE SORELL Lat: -42.20 Lon: 145.17 Height: 19.3 m
Data from the previous 72 hours. | See also: Recent months at Cape Sorell
Date/Time
EDT
Wind Sea
Height
m
Swell Vis
km
Cloud Weather Temp
°C
Press
hPa
Rain since
9am
mm
Dir  Spd
kts
Gust
kts
Height
m
Period
s
Dir
23/03:30pm N 25 30 - - - - - - - 13.3 988.7 8.0
23/03:00pm N 24 31 - - - - - - Rain 12.6 989.0 8.0
23/02:30pm N 24 30 - - - - - - - 12.4 989.2 7.4
23/02:00pm N 26 32 - - - - - - - 13.1 989.2 6.8
23/01:30pm N 25 30 - - - - - - - 13.7 989.2 6.4
23/01:00pm N 27 33 - - - - - - - 13.9 989.4 6.4
23/12:44pm N 29 35 - - - - - - - 13.5 989.2 6.4
23/12:35pm NNW 21 31 - - - - - - - 13.9 989.5 6.4
23/12:30pm NNW 20 26 - - - - - - - 14.0 989.5 6.4
23/12:00pm N 19 23 - - - - - - Recent precip. 13.7 989.8 6.4
23/11:30am N 10 16 - - - - - - - 13.7 990.1 6.4
23/11:00am NNE 6 8 - - - - - - - 12.3 990.3 5.0
23/10:30am N 10 13 - - - - - - - 12.3 990.7 3.4
23/10:00am N 19 23 - - - - - - - 12.2 991.0 1.2
23/09:30am NNE 16 20 - - - - - - - 13.4 991.0 0.0
23/09:00am NNE 16 20 - - - - - - - 13.4 991.2 27.0
23/08:30am NNE 14 19 - - - - - - - 13.2 991.4 27.0
23/08:00am N 19 23 - - - - - - - 13.1 991.6 27.0
23/07:30am N 20 24 - - - - - - - 13.0 991.4 27.0
23/07:00am N 21 26 - - - - - - - 12.8 991.7 27.0
23/06:30am N 15 20 - - - - - - - 13.0 992.0 27.0
23/06:00am N 19 24 - - - - - - Recent precip. 12.9 991.9 26.8
23/05:30am N 18 22 - - - - - - - 12.7 992.2 26.6
23/05:00am N 20 25 - - - - - - - 12.5 992.6 26.4
23/04:30am N 21 26 - - - - - - - 13.2 992.9 26.0
23/04:00am N 21 26 - - - - - - - 13.1 993.1 26.0
23/03:30am N 15 18 - - - - - - - 13.1 993.4 25.8
23/03:00am N 14 17 - - - - - - Recent precip. 13.2 993.5 25.8
23/02:30am N 15 18 - - - - - - - 13.3 993.7 25.6
23/02:00am NNE 15 18 - - - - - - - 13.1 993.8 25.6
23/01:30am NNE 12 14 - - - - - - - 13.2 994.3 25.4
23/01:00am NNE 12 14 - - - - - - - 13.2 994.8 24.6
23/12:30am NNE 12 15 - - - - - - - 13.3 995.5 23.8
23/12:00am N 16 18 - - - - - - Rain 13.1 995.9 22.8
 
Date/Time
EDT
Wind Sea
Height
m
Swell Vis
km
Cloud Weather Temp
°C
Press
hPa
Rain since
9am
mm
Dir  Spd
kts
Gust
kts
Height
m
Period
s
Dir
22/11:30pm NNE 15 18 - - - - - - - 13.9 996.3 21.2
22/11:00pm NNE 17 20 - - - - - - - 13.7 996.1 19.6
22/10:30pm N 20 24 - - - - - - - 14.0 996.5 18.8
22/10:00pm N 16 21 - - - - - - - 14.6 997.1 17.6
22/09:30pm N 17 23 - - - - - - - 14.7 996.8 16.4
22/09:00pm N 15 18 - - - - - - Rain 14.8 996.4 15.2
22/08:30pm NNE 17 20 - - - - - - - 14.7 996.0 14.4
22/08:00pm N 16 19 - - - - - - - 14.7 996.2 14.0
22/07:30pm N 13 17 - - - - - - - 14.6 996.1 12.0
22/07:00pm N 14 16 - - - - - - - 14.8 996.1 9.4
22/06:30pm NNW 11 15 - - - - - - - 14.8 995.8 8.6
22/06:00pm NW 14 19 - - - - - - Rain 14.9 995.9 6.8
22/05:30pm WNW 12 17 - - - - - - - 15.0 995.5 4.0
22/05:00pm W 14 21 - - - - - - - 15.0 995.3 3.2
22/04:30pm WSW 17 22 - - - - - - - 15.6 995.4 2.0
22/04:06pm WNW 20 34 - - - - - - - 18.1 994.9 0.0
22/04:02pm NW 18 34 - - - - - - - 19.2 994.1 0.0
22/04:01pm NNW 17 32 - - - - - - - 19.7 994.7 0.0
22/04:00pm NNW 17 23 - - - - - - - 19.8 994.7 0.0
22/03:56pm N 19 25 - - - - - - - 20.3 994.5 0.0
22/03:30pm NNE 24 29 - - - - - - - 20.7 993.1 0.0
22/03:00pm NNE 26 31 - - - - - - - 20.7 993.7 0.0
22/02:30pm N 29 35 - - - - - - - 20.9 993.9 0.0
22/02:00pm N 28 33 - - - - - - - 21.1 994.2 0.0
22/01:30pm N 21 27 - - - - - - - 20.7 994.4 0.0
22/01:00pm NNE 24 28 - - - - - - - 20.9 994.3 0.0
22/12:30pm NNE 26 31 - - - - - - - 21.0 994.7 0.0
22/12:00pm NNE 24 31 - - - - - - - 20.4 995.4 0.0
22/11:30am NNE 27 34 - - - - - - - 19.9 995.9 0.0
22/11:00am NNE 25 29 - - - - - - - 19.3 996.5 0.0
22/10:30am NNE 25 29 - - - - - - - 18.3 997.0 0.0
22/10:00am NNE 23 28 - - - - - - - 17.9 997.5 0.0
22/09:30am NNE 25 32 - - - - - - - 18.0 997.7 0.0
22/09:00am NNE 26 29 - - - - - - - 18.2 997.9 0.0
22/08:30am NNE 28 33 - - - - - - - 17.7 997.7 0.0
22/08:00am NNE 25 31 - - - - - - - 17.6 998.0 0.0
22/07:30am NNE 19 24 - - - - - - - 16.7 998.6 0.0
22/07:00am NE 11 15 - - - - - - - 15.2 999.1 0.0
22/06:30am NE 11 14 - - - - - - - 14.1 999.6 0.0
22/06:00am NE 12 15 - - - - - - - 14.1 1000.0 0.0
22/05:30am NNE 12 14 - - - - - - - 14.2 1000.5 0.0
22/05:00am NNE 14 17 - - - - - - - 14.0 1000.9 0.0
22/04:30am NE 10 13 - - - - - - - 11.9 1001.3 0.0
22/04:00am ENE 11 15 - - - - - - - 11.1 1001.6 0.0
22/03:30am NE 9 12 - - - - - - - 11.3 1002.0 0.0
22/03:00am NE 8 10 - - - - - - - 12.4 1002.4 0.0
22/02:30am N 11 14 - - - - - - - 12.7 1003.5 0.0
22/02:00am N 9 12 - - - - - - - 12.6 1003.7 0.0
22/01:30am N 10 12 - - - - - - - 12.7 1004.2 0.0
22/01:00am N 9 11 - - - - - - - 12.8 1004.6 0.0
22/12:30am NNE 8 10 - - - - - - - 13.2 1004.6 0.0
22/12:00am N 6 7 - - - - - - - 12.9 1005.2 0.0
 
Date/Time
EDT
Wind Sea
Height
m
Swell Vis
km
Cloud Weather Temp
°C
Press
hPa
Rain since
9am
mm
Dir  Spd
kts
Gust
kts
Height
m
Period
s
Dir
21/11:30pm N 5 7 - - - - - - - 12.9 1005.5 0.0
21/11:00pm NNW 5 7 - - - - - - - 13.1 1005.9 0.0
21/10:30pm NNW 6 8 - - - - - - - 13.1 1006.3 0.0
21/10:00pm NNW 5 6 - - - - - - - 12.8 1006.4 0.0
21/09:30pm NW 3 4 - - - - - - - 12.6 1006.4 0.0
21/09:00pm NW 3 4 - - - - - - - 13.1 1006.3 0.0
21/08:30pm WNW 4 5 - - - - - - - 14.0 1006.5 0.0
21/08:00pm W 4 6 - - - - - - - 14.4 1006.2 0.0
21/07:30pm WSW 4 5 - - - - - - - 14.9 1006.2 0.0
21/07:00pm WSW 5 6 - - - - - - - 15.7 1006.3 0.0
21/06:30pm WSW 7 8 - - - - - - - 15.6 1006.4 0.0
21/06:00pm SW 8 9 - - - - - - - 16.0 1006.4 0.0
21/05:30pm SW 9 10 - - - - - - - 16.7 1006.5 0.0
21/05:00pm WSW 11 12 - - - - - - - 17.2 1006.6 0.0
21/04:30pm WSW 12 14 - - - - - - - 17.9 1006.7 0.0
21/04:00pm SW 12 14 - - - - - - - 18.3 1006.6 0.0
21/03:30pm SW 10 11 - - - - - - - 18.4 1006.6 0.0
21/03:00pm SW 11 12 - - - - - - - 18.9 1006.6 0.0
21/02:30pm SW 11 12 - - - - - - - 18.4 1006.6 0.0
21/02:00pm SW 11 12 - - - - - - - 18.3 1006.7 0.0
21/01:30pm SW 9 11 - - - - - - - 18.3 1007.1 0.0
21/01:00pm SW 10 12 - - - - - - - 18.2 1007.2 0.0
21/12:30pm SW 11 12 - - - - - - - 16.9 1007.4 0.0
21/12:00pm SSW 10 12 - - - - - - - 16.2 1007.3 0.0
21/11:30am SSW 11 13 - - - - - - - 16.0 1007.3 0.0
21/11:00am SSW 13 15 - - - - - - - 14.9 1007.3 0.0
21/10:30am SSW 13 16 - - - - - - - 14.4 1007.5 0.0
21/10:00am SSW 13 16 - - - - - - - 14.2 1007.6 0.0
21/09:30am S 13 16 - - - - - - - 13.9 1007.6 0.0
21/09:00am S 13 17 - - - - - - - 13.8 1007.4 0.0
21/08:30am S 14 18 - - - - - - - 13.6 1007.1 0.0
21/08:00am S 14 18 - - - - - - - 13.3 1006.7 0.0
21/07:30am S 14 18 - - - - - - - 13.1 1006.4 0.0
21/07:00am S 15 20 - - - - - - - 13.1 1006.4 0.0
21/06:30am S 17 21 - - - - - - - 12.9 1006.0 0.0
21/06:00am S 19 23 - - - - - - - 13.0 1005.8 0.0
21/05:30am S 20 24 - - - - - - - 13.1 1005.7 0.0
21/05:00am S 19 23 - - - - - - - 13.2 1005.7 0.0
21/04:30am S 20 24 - - - - - - - 13.1 1005.7 0.0
21/04:00am S 19 23 - - - - - - - 13.2 1005.7 0.0
21/03:30am S 18 25 - - - - - - - 13.3 1005.9 0.0
21/03:00am S 21 26 - - - - - - - 13.3 1005.8 0.0
21/02:30am S 21 26 - - - - - - - 13.4 1005.9 0.0
21/02:00am S 21 26 - - - - - - - 13.3 1005.9 0.0
21/01:30am S 23 28 - - - - - - - 13.1 1005.7 0.0
21/01:00am S 26 30 - - - - - - - 13.1 1005.5 0.0
21/12:30am S 26 32 - - - - - - - 13.1 1005.6 0.0
21/12:00am S 24 30 - - - - - - - 13.2 1005.6 0.0
 
Date/Time
EDT
Wind Sea
Height
m
Swell Vis
km
Cloud Weather Temp
°C
Press
hPa
Rain since
9am
mm
Dir  Spd
kts
Gust
kts
Height
m
Period
s
Dir
20/11:30pm S 24 29 - - - - - - - 13.3 1005.4 0.0
20/11:00pm S 24 30 - - - - - - - 13.4 1005.4 0.0
20/10:30pm S 24 31 - - - - - - - 13.4 1005.3 0.0
20/10:00pm S 26 33 - - - - - - - 13.5 1005.2 0.0
20/09:30pm S 27 35 - - - - - - - 13.7 1004.9 0.0
20/09:00pm S 27 33 - - - - - - - 13.9 1004.8 0.0
20/08:30pm S 25 31 - - - - - - - 14.1 1004.6 0.0
20/08:00pm S 25 32 - - - - - - - 14.6 1004.4 0.0
20/07:30pm S 25 32 - - - - - - - 15.1 1004.3 0.0
20/07:00pm S 24 31 - - - - - - - 15.5 1004.1 0.0
20/06:30pm S 24 30 - - - - - - - 15.9 1004.1 0.0
20/06:00pm S 21 25 - - - - - - - 16.6 1004.3 0.0
20/05:30pm SSW 20 24 - - - - - - - 17.1 1004.6 0.0
20/05:00pm SSW 19 23 - - - - - - - 17.6 1004.8 0.0
20/04:30pm S 18 22 - - - - - - - 17.6 1004.9 0.0
20/04:00pm S 16 20 - - - - - - - 17.4 1005.2 0.0

Other formats

Comma delimited format used in spreadsheet applications
http://www.bom.gov.au/fwo/IDT60701/IDT60701.94974.axf

JavaScript Object Notation format (JSON) in row-major order
http://www.bom.gov.au/fwo/IDT60701/IDT60701.94974.json

Data quality

Most of these data are generated automatically and are frequently updated. Quality checks on data are not normally performed. It is possible for incorrect values to appear. Refer to information at About Latest Weather Observations and please check the disclaimer before using these data.